Time;durP1;ratioP1;P1;durP2;ratioP2;P2;SDS_P1;SDS_P2;PMS_P1;PMS_P2;Temp;Humidity;BMP_temperature;BMP_pressure;BME280_temperature;BME280_humidity;BME280_pressure;Samples;Min_cycle;Max_cycle;Signal;HPM_P1;HPM_P2
2024/03/11 00:02:00;;;;;;;37.20;21.20;;;;;;;;;;4960766;28;20176;-74
2024/03/11 00:04:25;;;;;;;36.67;20.97;;;;;;;;;;4978061;28;20560;-74
2024/03/11 00:06:50;;;;;;;34.17;20.10;;;;;;;;;;4968669;28;20493;-74
2024/03/11 00:09:19;;;;;;;31.80;20.97;;;;;;;;;;4976937;28;20250;-74
2024/03/11 00:11:48;;;;;;;33.00;19.53;;;;;;;;;;4974325;28;20219;-74
2024/03/11 00:14:16;;;;;;;31.53;19.10;;;;;;;;;;4976425;28;20260;-74
2024/03/11 00:16:42;;;;;;;33.73;20.27;;;;;;;;;;4955051;28;20189;-74
2024/03/11 00:19:08;;;;;;;35.33;20.57;;;;;;;;;;4974809;28;20651;-74
2024/03/11 00:21:33;;;;;;;34.60;20.73;;;;;;;;;;4974479;28;20189;-74
2024/03/11 00:23:58;;;;;;;37.97;20.23;;;;;;;;;;4973457;28;20732;-74
2024/03/11 00:26:24;;;;;;;36.63;21.77;;;;;;;;;;4975649;28;20184;-74
2024/03/11 00:28:50;;;;;;;33.20;20.87;;;;;;;;;;4973897;28;20688;-74
2024/03/11 00:31:15;;;;;;;31.73;19.60;;;;;;;;;;4974078;28;20258;-74
2024/03/11 00:33:40;;;;;;;34.93;20.33;;;;;;;;;;4972695;28;20196;-74
2024/03/11 00:36:05;;;;;;;33.83;19.30;;;;;;;;;;4958862;28;20273;-74
2024/03/11 00:38:32;;;;;;;34.50;20.43;;;;;;;;;;4974519;28;20195;-74
2024/03/11 00:40:57;;;;;;;32.80;19.50;;;;;;;;;;4977734;28;20184;-74
2024/03/11 00:43:22;;;;;;;33.80;19.83;;;;;;;;;;4975931;28;20196;-74
2024/03/11 00:45:48;;;;;;;36.07;20.40;;;;;;;;;;4973978;28;20560;-74
2024/03/11 00:48:13;;;;;;;35.97;20.63;;;;;;;;;;4957905;28;20223;-74
2024/03/11 00:50:38;;;;;;;38.60;21.93;;;;;;;;;;4973045;28;20187;-74
2024/03/11 00:53:03;;;;;;;32.30;19.73;;;;;;;;;;4973171;28;20200;-74
2024/03/11 00:55:29;;;;;;;36.23;21.20;;;;;;;;;;4974644;28;20180;-74
2024/03/11 00:57:54;;;;;;;29.90;18.87;;;;;;;;;;4975225;28;20195;-74
2024/03/11 01:00:22;;;;;;;37.30;21.27;;;;;;;;;;4956490;28;20184;-74
2024/03/11 01:02:49;;;;;;;38.90;21.23;;;;;;;;;;4959386;28;20262;-74
2024/03/11 01:05:14;;;;;;;37.03;20.97;;;;;;;;;;4958097;28;20185;-74
2024/03/11 01:07:39;;;;;;;35.90;20.80;;;;;;;;;;4975625;28;20208;-74
2024/03/11 01:10:05;;;;;;;34.20;20.13;;;;;;;;;;4955427;28;20195;-74
2024/03/11 01:12:30;;;;;;;37.13;21.17;;;;;;;;;;4975219;28;20196;-74
2024/03/11 01:14:55;;;;;;;32.50;19.27;;;;;;;;;;4974670;28;20593;-74
2024/03/11 01:17:20;;;;;;;33.57;20.93;;;;;;;;;;4957181;28;20216;-74
2024/03/11 01:19:47;;;;;;;33.47;20.40;;;;;;;;;;4967730;28;20239;-75
2024/03/11 01:22:12;;;;;;;36.13;20.47;;;;;;;;;;4950451;28;20184;-74
2024/03/11 01:24:39;;;;;;;38.60;21.87;;;;;;;;;;4972181;28;20332;-74
2024/03/11 01:27:10;;;;;;;33.97;20.40;;;;;;;;;;4970616;28;20731;-75
2024/03/11 01:29:38;;;;;;;31.93;20.17;;;;;;;;;;4973179;28;20196;-75
2024/03/11 01:32:03;;;;;;;34.77;21.10;;;;;;;;;;4966419;28;20199;-75
2024/03/11 01:34:29;;;;;;;32.07;19.60;;;;;;;;;;4971742;28;20566;-75
2024/03/11 01:36:54;;;;;;;33.90;21.03;;;;;;;;;;4972234;28;20571;-75
2024/03/11 01:39:25;;;;;;;36.10;22.37;;;;;;;;;;4966839;28;20558;-75
2024/03/11 01:41:50;;;;;;;31.97;19.53;;;;;;;;;;4970701;28;21361;-75
2024/03/11 01:44:17;;;;;;;37.30;20.97;;;;;;;;;;4974888;28;20195;-75
2024/03/11 01:46:44;;;;;;;34.87;20.47;;;;;;;;;;4963607;28;20189;-72
2024/03/11 01:49:09;;;;;;;38.57;22.10;;;;;;;;;;4972557;28;20219;-75
2024/03/11 01:51:34;;;;;;;38.23;21.23;;;;;;;;;;4973904;28;20180;-74
2024/03/11 01:54:00;;;;;;;34.17;20.83;;;;;;;;;;4972008;28;20192;-74
2024/03/11 01:56:28;;;;;;;34.07;20.43;;;;;;;;;;4972421;28;20334;-73
2024/03/11 01:58:55;;;;;;;36.63;20.97;;;;;;;;;;4977146;28;20251;-74
2024/03/11 02:01:21;;;;;;;34.50;21.33;;;;;;;;;;4977122;28;20187;-74
2024/03/11 02:03:46;;;;;;;34.87;20.20;;;;;;;;;;4973673;28;20204;-74
2024/03/11 02:06:12;;;;;;;35.93;20.90;;;;;;;;;;4975605;28;20644;-75
2024/03/11 02:08:37;;;;;;;36.53;20.03;;;;;;;;;;4972196;28;20263;-72
2024/03/11 02:11:03;;;;;;;33.70;19.93;;;;;;;;;;4956711;28;20231;-74
2024/03/11 02:13:30;;;;;;;31.87;20.07;;;;;;;;;;4967328;28;20593;-75
2024/03/11 02:15:55;;;;;;;42.47;21.57;;;;;;;;;;4973950;28;20639;-75
2024/03/11 02:18:20;;;;;;;35.60;21.93;;;;;;;;;;4969915;28;20184;-75
2024/03/11 02:20:48;;;;;;;34.87;20.37;;;;;;;;;;4969839;28;20559;-74
2024/03/11 02:23:13;;;;;;;32.17;21.20;;;;;;;;;;4970979;28;20200;-74
2024/03/11 02:25:39;;;;;;;32.43;20.20;;;;;;;;;;4971000;28;20187;-74
2024/03/11 02:28:05;;;;;;;37.40;21.03;;;;;;;;;;4980742;28;20214;-74
2024/03/11 02:30:30;;;;;;;37.80;21.87;;;;;;;;;;4954936;28;20181;-74
2024/03/11 02:32:56;;;;;;;35.53;20.77;;;;;;;;;;4954427;28;20200;-74
2024/03/11 02:35:22;;;;;;;37.50;22.17;;;;;;;;;;4955502;28;20191;-74
2024/03/11 02:37:48;;;;;;;32.60;20.53;;;;;;;;;;4959845;28;20664;-74
2024/03/11 02:40:14;;;;;;;35.70;21.57;;;;;;;;;;4976898;28;20176;-74
2024/03/11 02:42:40;;;;;;;37.63;21.17;;;;;;;;;;4958349;28;20203;-74
2024/03/11 02:45:07;;;;;;;37.27;22.07;;;;;;;;;;4975277;28;20187;-74
2024/03/11 02:47:33;;;;;;;35.50;21.00;;;;;;;;;;4969959;28;20283;-74
2024/03/11 02:49:58;;;;;;;37.97;21.77;;;;;;;;;;4971996;28;20672;-75
2024/03/11 02:52:23;;;;;;;34.87;20.17;;;;;;;;;;4968239;28;20195;-72
2024/03/11 02:54:50;;;;;;;45.47;23.53;;;;;;;;;;4970634;28;20177;-74
2024/03/11 02:57:16;;;;;;;35.13;20.80;;;;;;;;;;4978469;28;20190;-73
2024/03/11 02:59:42;;;;;;;36.70;22.00;;;;;;;;;;4960813;28;20188;-73
2024/03/11 03:02:10;;;;;;;33.60;19.83;;;;;;;;;;4949981;28;20180;-73
2024/03/11 03:04:35;;;;;;;31.97;18.93;;;;;;;;;;4957759;28;20650;-73
2024/03/11 03:07:00;;;;;;;35.30;22.17;;;;;;;;;;4973270;28;20188;-73
2024/03/11 03:09:25;;;;;;;36.60;20.90;;;;;;;;;;4968966;28;20293;-73
2024/03/11 03:11:51;;;;;;;34.27;20.27;;;;;;;;;;4971350;28;20184;-73
2024/03/11 03:14:16;;;;;;;36.80;21.77;;;;;;;;;;4979745;28;20199;-73
2024/03/11 03:16:42;;;;;;;37.10;21.03;;;;;;;;;;4975833;28;20184;-73
2024/03/11 03:19:07;;;;;;;34.63;20.77;;;;;;;;;;4972273;28;20713;-73
2024/03/11 03:21:32;;;;;;;35.27;21.27;;;;;;;;;;4975696;28;20176;-73
2024/03/11 03:23:57;;;;;;;38.33;22.57;;;;;;;;;;4969499;28;20284;-73
2024/03/11 03:26:24;;;;;;;35.20;20.80;;;;;;;;;;4973950;28;20183;-73
2024/03/11 03:28:49;;;;;;;31.27;20.07;;;;;;;;;;4978401;28;20203;-73
2024/03/11 03:31:14;;;;;;;33.77;20.43;;;;;;;;;;4976811;28;20189;-73
2024/03/11 03:33:39;;;;;;;38.90;22.17;;;;;;;;;;4961703;28;20295;-73
2024/03/11 03:36:05;;;;;;;32.90;20.10;;;;;;;;;;4973741;28;20197;-73
2024/03/11 03:38:30;;;;;;;35.87;20.13;;;;;;;;;;4977444;28;20177;-73
2024/03/11 03:40:55;;;;;;;35.93;21.20;;;;;;;;;;4956769;28;20176;-73
2024/03/11 03:43:21;;;;;;;42.80;21.67;;;;;;;;;;4975737;28;20196;-73
2024/03/11 03:45:47;;;;;;;35.13;20.77;;;;;;;;;;4978922;28;20597;-73
2024/03/11 03:48:12;;;;;;;33.53;20.20;;;;;;;;;;4977572;28;20199;-74
2024/03/11 03:50:38;;;;;;;36.83;21.67;;;;;;;;;;4979519;28;20177;-74
2024/03/11 03:53:03;;;;;;;34.03;21.90;;;;;;;;;;4953429;28;20196;-74
2024/03/11 03:55:29;;;;;;;31.27;19.57;;;;;;;;;;4973976;28;20656;-74
2024/03/11 03:57:54;;;;;;;32.53;20.37;;;;;;;;;;4961249;28;20288;-73
2024/03/11 04:00:20;;;;;;;34.63;20.77;;;;;;;;;;4970415;28;20188;-73
2024/03/11 04:02:46;;;;;;;36.77;20.67;;;;;;;;;;4975745;28;20586;-74
2024/03/11 04:05:12;;;;;;;32.97;19.93;;;;;;;;;;4983904;28;20267;-73
2024/03/11 04:07:39;;;;;;;38.20;22.73;;;;;;;;;;4975544;28;20683;-73
2024/03/11 04:10:04;;;;;;;34.60;20.63;;;;;;;;;;4974054;28;20181;-73
2024/03/11 04:12:29;;;;;;;35.27;19.90;;;;;;;;;;4963066;28;20251;-73
2024/03/11 04:14:55;;;;;;;32.03;21.40;;;;;;;;;;4975359;28;20189;-73
2024/03/11 04:17:22;;;;;;;32.97;20.87;;;;;;;;;;4980194;28;20243;-75
2024/03/11 04:19:48;;;;;;;34.77;21.30;;;;;;;;;;4971150;28;20640;-74
2024/03/11 04:22:14;;;;;;;38.70;22.30;;;;;;;;;;4960973;28;20180;-74
2024/03/11 04:24:39;;;;;;;36.73;21.20;;;;;;;;;;4957102;28;20672;-74
2024/03/11 04:27:05;;;;;;;34.70;20.30;;;;;;;;;;4976254;28;20180;-74
2024/03/11 04:29:30;;;;;;;34.30;20.00;;;;;;;;;;4978200;28;20199;-74
2024/03/11 04:31:57;;;;;;;37.13;21.07;;;;;;;;;;4956032;28;20227;-74
2024/03/11 04:34:22;;;;;;;33.57;20.80;;;;;;;;;;4974794;28;20192;-74
2024/03/11 04:36:48;;;;;;;34.90;20.93;;;;;;;;;;4973183;28;20200;-74
2024/03/11 04:39:14;;;;;;;33.43;20.33;;;;;;;;;;4964583;28;20687;-74
2024/03/11 04:41:41;;;;;;;37.07;21.50;;;;;;;;;;4973056;28;20188;-74
2024/03/11 04:44:06;;;;;;;36.20;21.70;;;;;;;;;;4965729;28;20251;-74
2024/03/11 04:46:31;;;;;;;36.60;21.77;;;;;;;;;;4968903;28;20199;-73
2024/03/11 04:48:58;;;;;;;37.97;20.80;;;;;;;;;;4967579;28;20735;-74
2024/03/11 04:51:23;;;;;;;36.43;21.47;;;;;;;;;;4971742;28;20182;-73
2024/03/11 04:53:49;;;;;;;33.33;21.27;;;;;;;;;;4972245;28;20204;-74
2024/03/11 04:56:15;;;;;;;38.17;21.27;;;;;;;;;;4974208;28;20263;-74
2024/03/11 04:58:41;;;;;;;37.53;21.73;;;;;;;;;;4955729;28;20185;-74
2024/03/11 05:01:06;;;;;;;37.77;21.90;;;;;;;;;;4956023;28;20188;-74
2024/03/11 05:03:31;;;;;;;36.53;22.77;;;;;;;;;;4953835;28;20208;-74
2024/03/11 05:05:56;;;;;;;37.53;22.23;;;;;;;;;;4967385;28;20180;-74
2024/03/11 05:08:22;;;;;;;37.43;22.13;;;;;;;;;;4976279;28;20219;-74
2024/03/11 05:10:47;;;;;;;37.53;21.13;;;;;;;;;;4971969;28;20267;-74
2024/03/11 05:13:12;;;;;;;39.83;22.43;;;;;;;;;;4972946;28;20291;-74
2024/03/11 05:15:37;;;;;;;35.13;21.87;;;;;;;;;;4975368;28;20202;-74
2024/03/11 05:18:03;;;;;;;37.53;21.20;;;;;;;;;;4973441;28;21266;-74
2024/03/11 05:20:28;;;;;;;39.80;22.57;;;;;;;;;;4975070;28;20634;-74
2024/03/11 05:22:53;;;;;;;37.93;21.97;;;;;;;;;;4968400;28;20207;-74
2024/03/11 05:25:18;;;;;;;39.73;24.23;;;;;;;;;;4973679;28;20184;-74
2024/03/11 05:27:45;;;;;;;40.97;23.53;;;;;;;;;;4963807;28;20223;-74
2024/03/11 05:30:10;;;;;;;39.73;24.70;;;;;;;;;;4973282;28;20227;-74
2024/03/11 05:32:35;;;;;;;33.50;21.03;;;;;;;;;;4975387;28;20196;-74
2024/03/11 05:35:01;;;;;;;40.87;23.63;;;;;;;;;;4970519;28;20177;-74
2024/03/11 05:37:26;;;;;;;37.30;22.70;;;;;;;;;;4960556;28;20655;-74
2024/03/11 05:39:53;;;;;;;36.13;23.23;;;;;;;;;;4952895;28;20230;-74
2024/03/11 05:42:19;;;;;;;41.70;24.07;;;;;;;;;;4955283;28;20222;-74
2024/03/11 05:44:45;;;;;;;44.47;23.10;;;;;;;;;;4972857;28;20192;-73
2024/03/11 05:47:10;;;;;;;38.87;22.20;;;;;;;;;;4974923;28;20543;-72
2024/03/11 05:49:36;;;;;;;42.43;23.83;;;;;;;;;;4959989;28;20188;-73
2024/03/11 05:52:02;;;;;;;45.20;24.03;;;;;;;;;;4971490;28;20520;-73
2024/03/11 05:54:28;;;;;;;40.37;24.87;;;;;;;;;;4973336;28;20244;-73
2024/03/11 05:56:54;;;;;;;36.77;23.13;;;;;;;;;;4957723;28;20205;-72
2024/03/11 05:59:26;;;;;;;42.00;23.60;;;;;;;;;;4968992;28;20180;-74
2024/03/11 06:01:51;;;;;;;40.43;25.67;;;;;;;;;;4971052;28;20231;-72
2024/03/11 06:04:17;;;;;;;43.30;25.40;;;;;;;;;;4972465;28;20231;-72
2024/03/11 06:06:43;;;;;;;42.23;25.00;;;;;;;;;;4961718;28;20188;-72
2024/03/11 06:09:10;;;;;;;39.93;24.73;;;;;;;;;;4970727;28;20287;-73
2024/03/11 06:11:40;;;;;;;43.60;26.43;;;;;;;;;;4973460;28;20171;-73
2024/03/11 06:14:05;;;;;;;41.03;24.23;;;;;;;;;;4973221;28;20275;-73
2024/03/11 06:16:31;;;;;;;41.37;24.93;;;;;;;;;;4970159;28;20267;-73
2024/03/11 06:18:56;;;;;;;42.97;26.10;;;;;;;;;;4973291;28;20172;-72
2024/03/11 06:21:21;;;;;;;43.77;25.40;;;;;;;;;;4975806;28;20177;-72
2024/03/11 06:23:48;;;;;;;42.10;25.90;;;;;;;;;;4973425;28;20200;-73
2024/03/11 06:26:13;;;;;;;42.30;25.17;;;;;;;;;;4971755;28;20176;-72
2024/03/11 06:28:40;;;;;;;43.93;24.20;;;;;;;;;;4973239;28;20604;-73
2024/03/11 06:31:05;;;;;;;41.77;26.00;;;;;;;;;;4967685;28;21168;-73
2024/03/11 06:33:30;;;;;;;43.87;25.87;;;;;;;;;;4969814;28;20266;-73
2024/03/11 06:35:56;;;;;;;43.50;26.47;;;;;;;;;;4970633;28;20196;-73
2024/03/11 06:38:21;;;;;;;45.00;25.20;;;;;;;;;;4968902;28;20231;-73
2024/03/11 06:40:46;;;;;;;43.20;25.23;;;;;;;;;;4971745;28;20188;-73
2024/03/11 06:43:12;;;;;;;46.33;27.33;;;;;;;;;;4968479;28;20208;-73
2024/03/11 06:45:37;;;;;;;46.17;25.07;;;;;;;;;;4972868;28;20660;-73
2024/03/11 06:48:03;;;;;;;45.27;26.13;;;;;;;;;;4969303;28;20209;-73
2024/03/11 06:50:28;;;;;;;45.60;25.63;;;;;;;;;;4960918;28;20757;-73
2024/03/11 06:52:54;;;;;;;42.70;25.33;;;;;;;;;;4970692;28;20688;-73
2024/03/11 06:55:20;;;;;;;48.10;27.47;;;;;;;;;;4974184;28;20186;-73
2024/03/11 06:57:46;;;;;;;57.50;31.47;;;;;;;;;;4968157;28;20216;-73
2024/03/11 07:00:17;;;;;;;80.77;39.87;;;;;;;;;;4966519;28;20180;-73
2024/03/11 07:02:43;;;;;;;71.10;37.93;;;;;;;;;;4966842;28;20626;-73
2024/03/11 07:05:09;;;;;;;88.07;42.47;;;;;;;;;;4972678;28;20588;-73
2024/03/11 07:07:35;;;;;;;91.60;45.53;;;;;;;;;;4972242;28;20295;-74
2024/03/11 07:10:01;;;;;;;86.00;44.03;;;;;;;;;;4974646;28;20636;-74
2024/03/11 07:12:26;;;;;;;75.40;37.67;;;;;;;;;;4970966;28;20196;-74
2024/03/11 07:14:51;;;;;;;67.37;36.80;;;;;;;;;;4975224;28;20572;-73
2024/03/11 07:17:16;;;;;;;59.97;33.03;;;;;;;;;;4953627;28;20184;-73
2024/03/11 07:19:41;;;;;;;52.03;30.00;;;;;;;;;;4970631;28;20711;-73
2024/03/11 07:22:07;;;;;;;56.30;30.63;;;;;;;;;;4965237;28;20188;-74
2024/03/11 07:24:32;;;;;;;45.57;27.37;;;;;;;;;;4968062;28;20599;-73
2024/03/11 07:26:58;;;;;;;52.33;27.00;;;;;;;;;;4973186;28;20607;-74
2024/03/11 07:29:23;;;;;;;47.03;26.63;;;;;;;;;;4968872;28;20200;-73
2024/03/11 07:31:48;;;;;;;42.00;25.23;;;;;;;;;;4969598;28;20180;-74
2024/03/11 07:34:14;;;;;;;43.17;26.80;;;;;;;;;;4969525;28;20188;-73
2024/03/11 07:36:39;;;;;;;45.93;27.37;;;;;;;;;;4959248;28;20189;-73
2024/03/11 07:39:04;;;;;;;43.70;27.67;;;;;;;;;;4972655;28;20215;-73
2024/03/11 07:41:30;;;;;;;44.37;24.90;;;;;;;;;;4967496;28;20180;-73
2024/03/11 07:43:56;;;;;;;45.47;26.40;;;;;;;;;;4968919;28;20196;-74
2024/03/11 07:46:21;;;;;;;45.47;26.00;;;;;;;;;;4977067;28;20709;-73
2024/03/11 07:48:46;;;;;;;43.47;26.57;;;;;;;;;;4970191;28;20216;-73
2024/03/11 07:51:13;;;;;;;43.97;24.87;;;;;;;;;;4968893;28;20185;-73
2024/03/11 07:53:38;;;;;;;43.90;27.23;;;;;;;;;;4955825;28;20612;-74
2024/03/11 07:56:04;;;;;;;51.30;27.43;;;;;;;;;;4975486;28;20181;-73
2024/03/11 07:58:29;;;;;;;43.80;26.13;;;;;;;;;;4952506;28;20208;-73
2024/03/11 08:00:54;;;;;;;43.53;26.37;;;;;;;;;;4958713;28;20187;-73
2024/03/11 08:03:20;;;;;;;41.03;25.67;;;;;;;;;;4976338;28;20195;-73
2024/03/11 08:05:45;;;;;;;44.20;26.50;;;;;;;;;;4974951;28;20200;-74
2024/03/11 08:08:11;;;;;;;43.60;26.03;;;;;;;;;;4960800;28;20195;-73
2024/03/11 08:10:36;;;;;;;50.50;28.43;;;;;;;;;;4976088;28;20188;-73
2024/03/11 08:13:02;;;;;;;46.10;25.30;;;;;;;;;;4976180;28;20207;-73
2024/03/11 08:15:27;;;;;;;42.23;25.90;;;;;;;;;;4950575;28;20523;-74
2024/03/11 08:17:52;;;;;;;46.23;25.23;;;;;;;;;;4967614;28;20727;-73
2024/03/11 08:20:20;;;;;;;46.50;26.67;;;;;;;;;;4973150;28;20699;-74
2024/03/11 08:22:49;;;;;;;42.97;26.33;;;;;;;;;;4958878;28;20263;-73
2024/03/11 08:25:15;;;;;;;41.57;25.10;;;;;;;;;;4977154;28;20180;-74
2024/03/11 08:27:41;;;;;;;47.57;25.77;;;;;;;;;;4961306;28;20562;-73
2024/03/11 08:30:10;;;;;;;42.63;25.30;;;;;;;;;;4958151;28;20179;-74
2024/03/11 08:32:35;;;;;;;47.03;25.00;;;;;;;;;;4957637;28;20258;-73
2024/03/11 08:35:01;;;;;;;43.97;26.10;;;;;;;;;;4997012;23;20657;-69
2024/03/11 08:37:26;;;;;;;46.90;26.80;;;;;;;;;;4983702;28;20177;-70
2024/03/11 08:39:51;;;;;;;41.17;25.93;;;;;;;;;;4988789;28;20184;-70
2024/03/11 08:42:18;;;;;;;43.97;25.20;;;;;;;;;;4984837;28;20180;-70
2024/03/11 08:44:44;;;;;;;42.43;26.40;;;;;;;;;;4989617;28;20662;-69
2024/03/11 08:47:11;;;;;;;43.53;27.67;;;;;;;;;;4986699;28;20200;-70
2024/03/11 08:49:37;;;;;;;42.97;26.23;;;;;;;;;;4988397;28;20180;-69
2024/03/11 08:52:06;;;;;;;43.77;25.87;;;;;;;;;;4988016;28;20175;-69
2024/03/11 08:54:31;;;;;;;41.37;24.83;;;;;;;;;;4973700;28;20310;-69
2024/03/11 08:56:56;;;;;;;41.90;24.97;;;;;;;;;;4985731;28;20242;-68
2024/03/11 08:59:22;;;;;;;45.43;27.20;;;;;;;;;;4979926;28;20176;-69
2024/03/11 09:01:48;;;;;;;47.10;27.60;;;;;;;;;;4989120;28;20274;-69
2024/03/11 09:04:13;;;;;;;44.13;25.97;;;;;;;;;;4986876;28;20765;-69
2024/03/11 09:06:38;;;;;;;43.97;24.60;;;;;;;;;;4987181;28;20207;-69
2024/03/11 09:09:04;;;;;;;43.63;25.77;;;;;;;;;;4989271;28;20208;-69
2024/03/11 09:11:29;;;;;;;42.47;25.00;;;;;;;;;;4973208;28;20200;-68
2024/03/11 09:13:57;;;;;;;45.73;25.73;;;;;;;;;;4988444;28;20259;-69
2024/03/11 09:16:22;;;;;;;38.97;24.80;;;;;;;;;;4978953;28;20203;-68
2024/03/11 09:18:47;;;;;;;45.93;27.53;;;;;;;;;;4988524;28;20188;-68
2024/03/11 09:21:14;;;;;;;45.03;25.40;;;;;;;;;;4984924;28;20182;-69
2024/03/11 09:23:39;;;;;;;45.73;26.37;;;;;;;;;;4987075;28;20190;-68
2024/03/11 09:26:09;;;;;;;42.07;25.57;;;;;;;;;;4993170;28;20204;-69
2024/03/11 09:28:35;;;;;;;43.47;25.00;;;;;;;;;;4992221;28;20257;-70
2024/03/11 09:31:00;;;;;;;43.60;26.43;;;;;;;;;;4975193;28;20175;-70
2024/03/11 09:33:27;;;;;;;42.10;24.90;;;;;;;;;;4968572;28;20430;-70
2024/03/11 09:35:52;;;;;;;44.90;26.77;;;;;;;;;;4971496;28;20211;-70
2024/03/11 09:38:19;;;;;;;41.87;24.67;;;;;;;;;;4989020;28;20175;-70
2024/03/11 09:40:45;;;;;;;39.60;24.33;;;;;;;;;;4992075;28;20588;-70
2024/03/11 09:43:12;;;;;;;41.87;24.47;;;;;;;;;;4974628;28;20187;-69
2024/03/11 09:45:40;;;;;;;41.13;25.13;;;;;;;;;;4987474;28;20207;-70
2024/03/11 09:48:05;;;;;;;39.13;24.13;;;;;;;;;;4972736;28;20200;-70
2024/03/11 09:50:32;;;;;;;40.87;23.97;;;;;;;;;;4991206;28;20259;-70
2024/03/11 09:53:06;;;;;;;35.63;23.13;;;;;;;;;;4988869;28;20266;-70
2024/03/11 09:55:31;;;;;;;42.23;23.50;;;;;;;;;;4972899;28;20642;-69
2024/03/11 09:57:59;;;;;;;37.57;23.13;;;;;;;;;;4989824;28;20171;-68
2024/03/11 10:00:27;;;;;;;37.57;23.97;;;;;;;;;;4966888;28;20670;-70
2024/03/11 10:02:58;;;;;;;39.27;22.97;;;;;;;;;;4984752;28;20260;-70
2024/03/11 10:05:23;;;;;;;40.00;23.67;;;;;;;;;;4972723;28;20195;-70
2024/03/11 10:07:49;;;;;;;38.97;23.73;;;;;;;;;;4988051;28;20191;-70
2024/03/11 10:10:14;;;;;;;38.63;23.43;;;;;;;;;;4972492;28;20187;-70
2024/03/11 10:12:52;;;;;;;35.07;22.00;;;;;;;;;;4990689;28;20176;-70
2024/03/11 10:15:27;;;;;;;40.17;23.33;;;;;;;;;;4990148;28;20195;-70
2024/03/11 10:17:54;;;;;;;37.70;22.80;;;;;;;;;;4965112;28;20706;-70
2024/03/11 10:20:22;;;;;;;40.20;23.43;;;;;;;;;;4989840;28;20188;-70
2024/03/11 10:22:48;;;;;;;38.27;22.77;;;;;;;;;;4991022;28;20250;-70
2024/03/11 10:25:21;;;;;;;36.67;23.03;;;;;;;;;;4987779;28;20702;-70
2024/03/11 10:27:47;;;;;;;39.20;22.40;;;;;;;;;;4987284;28;20210;-72
2024/03/11 10:30:20;;;;;;;41.53;24.13;;;;;;;;;;4987940;28;20195;-68
2024/03/11 10:32:45;;;;;;;40.33;23.20;;;;;;;;;;4990906;28;20168;-71
2024/03/11 10:35:11;;;;;;;35.87;22.97;;;;;;;;;;4990704;28;20218;-71
2024/03/11 10:37:37;;;;;;;37.87;22.23;;;;;;;;;;4972653;28;20723;-71
2024/03/11 10:40:04;;;;;;;35.67;21.70;;;;;;;;;;4988966;28;20171;-70
2024/03/11 10:42:32;;;;;;;33.30;21.37;;;;;;;;;;4987195;28;20188;-70
2024/03/11 10:44:58;;;;;;;35.90;21.83;;;;;;;;;;4996805;28;20183;-71
2024/03/11 10:47:23;;;;;;;40.07;24.53;;;;;;;;;;4992916;28;20179;-70
2024/03/11 10:49:49;;;;;;;41.70;24.77;;;;;;;;;;4978632;28;20178;-70
2024/03/11 10:52:16;;;;;;;38.13;23.43;;;;;;;;;;4985837;28;20179;-70
2024/03/11 10:54:42;;;;;;;40.83;25.33;;;;;;;;;;4989735;28;20644;-70
2024/03/11 10:57:11;;;;;;;39.33;23.93;;;;;;;;;;4986909;28;20199;-70
2024/03/11 10:59:41;;;;;;;37.10;24.13;;;;;;;;;;4982833;28;20289;-70
2024/03/11 11:02:08;;;;;;;46.30;24.87;;;;;;;;;;4986593;28;20167;-71
2024/03/11 11:04:33;;;;;;;38.43;23.60;;;;;;;;;;4986997;28;20176;-70
2024/03/11 11:07:00;;;;;;;41.10;24.20;;;;;;;;;;4988179;28;20282;-71
2024/03/11 11:09:27;;;;;;;46.40;24.20;;;;;;;;;;4986293;28;20203;-70
2024/03/11 11:11:54;;;;;;;36.13;22.33;;;;;;;;;;4991335;28;20179;-71
2024/03/11 11:14:20;;;;;;;42.80;23.17;;;;;;;;;;4970834;28;20230;-69
2024/03/11 11:16:45;;;;;;;44.63;23.50;;;;;;;;;;4984656;28;20203;-71
2024/03/11 11:19:17;;;;;;;38.17;23.87;;;;;;;;;;4990068;28;20655;-70
2024/03/11 11:21:43;;;;;;;40.33;22.63;;;;;;;;;;4989101;28;20710;-70
2024/03/11 11:24:29;;;;;;;39.67;23.40;;;;;;;;;;4972127;28;20271;-68
2024/03/11 11:26:58;;;;;;;42.20;22.60;;;;;;;;;;4990405;28;20632;-68
2024/03/11 11:29:24;;;;;;;36.33;21.83;;;;;;;;;;4989776;28;20202;-69
2024/03/11 11:32:02;;;;;;;39.87;22.50;;;;;;;;;;4967216;28;20651;-70
2024/03/11 11:34:46;;;;;;;36.47;22.00;;;;;;;;;;4993480;28;20172;-69
2024/03/11 11:37:23;;;;;;;38.00;22.10;;;;;;;;;;4980055;28;20283;-69
2024/03/11 11:39:50;;;;;;;37.47;22.43;;;;;;;;;;4998158;28;20190;-71
2024/03/11 11:42:34;;;;;;;41.63;22.63;;;;;;;;;;4992017;28;20613;-70
2024/03/11 11:44:59;;;;;;;35.63;22.03;;;;;;;;;;4987649;28;20280;-70
2024/03/11 11:47:25;;;;;;;38.97;21.43;;;;;;;;;;4988845;28;20726;-70
2024/03/11 11:49:50;;;;;;;39.67;22.67;;;;;;;;;;4975768;28;20180;-70
2024/03/11 11:52:16;;;;;;;32.77;20.67;;;;;;;;;;4975285;28;20175;-70
2024/03/11 11:54:41;;;;;;;35.03;20.97;;;;;;;;;;4991067;28;20184;-69
2024/03/11 11:57:15;;;;;;;36.73;20.83;;;;;;;;;;4976173;28;20554;-69
2024/03/11 11:59:42;;;;;;;37.93;22.37;;;;;;;;;;4988497;28;20180;-70
2024/03/11 12:02:21;;;;;;;33.43;20.93;;;;;;;;;;4992153;28;20656;-70
2024/03/11 12:04:47;;;;;;;41.40;21.97;;;;;;;;;;4993640;28;20172;-70
2024/03/11 12:07:13;;;;;;;35.90;21.50;;;;;;;;;;4993425;28;20675;-70
2024/03/11 12:09:46;;;;;;;40.13;23.07;;;;;;;;;;4992615;28;20223;-70
2024/03/11 12:12:14;;;;;;;34.30;20.80;;;;;;;;;;4989506;28;20191;-70
2024/03/11 12:14:50;;;;;;;39.90;22.47;;;;;;;;;;4974973;28;20202;-70
2024/03/11 12:17:16;;;;;;;41.00;21.77;;;;;;;;;;4986258;28;20168;-69
2024/03/11 12:19:42;;;;;;;36.37;20.90;;;;;;;;;;4993104;28;20192;-70
2024/03/11 12:22:10;;;;;;;40.47;21.90;;;;;;;;;;4987682;28;20325;-70
2024/03/11 12:24:36;;;;;;;37.57;20.97;;;;;;;;;;4975061;28;20212;-70
2024/03/11 12:27:02;;;;;;;37.47;21.23;;;;;;;;;;4988743;28;20207;-70
2024/03/11 12:29:28;;;;;;;37.67;21.83;;;;;;;;;;4993173;28;20211;-70
2024/03/11 12:31:56;;;;;;;42.27;23.00;;;;;;;;;;4976125;28;20175;-70
2024/03/11 12:34:24;;;;;;;40.97;22.57;;;;;;;;;;4992026;28;20176;-68
2024/03/11 12:36:49;;;;;;;35.60;21.63;;;;;;;;;;4990938;28;20306;-69
2024/03/11 12:39:33;;;;;;;39.57;22.50;;;;;;;;;;4976543;28;20663;-69
2024/03/11 12:41:59;;;;;;;35.33;21.00;;;;;;;;;;4966993;28;20605;-69
2024/03/11 12:44:24;;;;;;;35.43;22.97;;;;;;;;;;4971017;28;20187;-69
2024/03/11 12:46:53;;;;;;;34.83;21.03;;;;;;;;;;4994350;28;20588;-70
2024/03/11 12:49:19;;;;;;;40.20;22.37;;;;;;;;;;4979246;28;20698;-68
2024/03/11 12:51:45;;;;;;;41.27;22.10;;;;;;;;;;4982656;28;20243;-69
2024/03/11 12:54:20;;;;;;;36.60;22.10;;;;;;;;;;4983203;28;20675;-69
2024/03/11 12:57:10;;;;;;;36.47;20.50;;;;;;;;;;4987504;28;20219;-68
2024/03/11 12:59:37;;;;;;;35.07;19.97;;;;;;;;;;4991499;28;20655;-69
2024/03/11 13:02:11;;;;;;;39.97;22.03;;;;;;;;;;4981296;28;20188;-69
2024/03/11 13:04:39;;;;;;;36.20;20.53;;;;;;;;;;4967363;28;20611;-69
2024/03/11 13:07:09;;;;;;;32.93;20.30;;;;;;;;;;4983789;28;20250;-70
2024/03/11 13:09:35;;;;;;;36.17;20.43;;;;;;;;;;4974560;28;20596;-69
2024/03/11 13:12:01;;;;;;;34.73;20.43;;;;;;;;;;4975788;28;20550;-69
2024/03/11 13:14:27;;;;;;;41.43;21.17;;;;;;;;;;4963918;28;20225;-70
2024/03/11 13:16:53;;;;;;;38.70;21.27;;;;;;;;;;4961699;28;20203;-68
2024/03/11 13:19:19;;;;;;;37.13;21.53;;;;;;;;;;4984599;28;20261;-70
2024/03/11 13:21:49;;;;;;;34.80;20.50;;;;;;;;;;4983623;28;20194;-69
2024/03/11 13:24:14;;;;;;;33.47;20.63;;;;;;;;;;4981065;28;20200;-68
2024/03/11 13:26:40;;;;;;;34.43;20.37;;;;;;;;;;4983551;28;20269;-69
2024/03/11 13:29:06;;;;;;;32.17;19.57;;;;;;;;;;4990164;28;20287;-68
2024/03/11 13:31:31;;;;;;;38.00;21.67;;;;;;;;;;4987676;28;20330;-70
2024/03/11 13:33:57;;;;;;;41.20;21.00;;;;;;;;;;4964957;28;20255;-69
2024/03/11 13:36:22;;;;;;;36.33;20.87;;;;;;;;;;4965986;28;20655;-70
2024/03/11 13:38:47;;;;;;;32.70;20.13;;;;;;;;;;4985646;28;20719;-70
2024/03/11 13:41:13;;;;;;;36.27;22.07;;;;;;;;;;4972261;28;20202;-70
2024/03/11 13:43:39;;;;;;;39.07;20.33;;;;;;;;;;4981154;28;20267;-70
2024/03/11 13:46:05;;;;;;;35.73;20.23;;;;;;;;;;4970656;28;20200;-69
2024/03/11 13:48:30;;;;;;;33.87;20.10;;;;;;;;;;4986775;28;20290;-69
2024/03/11 13:50:56;;;;;;;33.47;20.77;;;;;;;;;;4974668;28;20642;-69
2024/03/11 13:53:22;;;;;;;30.90;20.47;;;;;;;;;;4978284;28;20235;-69
2024/03/11 13:55:49;;;;;;;29.07;18.00;;;;;;;;;;4986880;28;20201;-70
2024/03/11 13:58:15;;;;;;;28.03;17.60;;;;;;;;;;4995248;28;20179;-69
2024/03/11 14:00:41;;;;;;;37.87;18.33;;;;;;;;;;4973907;28;20249;-68
2024/03/11 14:03:07;;;;;;;30.83;18.27;;;;;;;;;;4960739;28;20195;-70
2024/03/11 14:05:34;;;;;;;30.20;17.80;;;;;;;;;;4961740;28;20203;-70
2024/03/11 14:08:00;;;;;;;28.77;17.20;;;;;;;;;;4981967;28;20675;-70
2024/03/11 14:10:25;;;;;;;32.57;19.17;;;;;;;;;;4980874;28;20179;-70
2024/03/11 14:12:52;;;;;;;31.60;17.57;;;;;;;;;;4988511;28;20259;-70